Hollins College, Virginia
Current Conditions -  °F | °C
As of 5:54 PM on Wednesday 26 Nov 2014 (Local Time) from KROA Reporting Station
Overcast Overcast  
Wind Chill: 34°   Ceiling: 2700
Heat Index: 38°   Visibility: 10mi
Dew Point: 35°   Wind: 5mph
Humidity: 89%   Direction: 30°NNE
Pressure: 30.01"   Gusts: NA
Location:  37.3533°N, 79.9353°W
Report Text: KROA 262254Z 03004KT 10SM OVC027 03/02 A3001 RMK AO2 SLP167 T00330017
Loading
Personal Weather Stations






























Interactive Weather Map New forecast layout! Learn more

10-Day Weather Forecast

Advertisements
Track Severe Weather on mobile